createdAt,value
2023-08-22T00:00:32.568Z,5.70
2023-08-22T00:03:19.796Z,5.40
2023-08-22T00:05:46.729Z,5.90
2023-08-22T00:08:13.572Z,5.50
2023-08-22T00:10:41.028Z,5.60
2023-08-22T00:13:07.871Z,5.70
2023-08-22T00:15:34.958Z,5.90
2023-08-22T00:18:02.192Z,5.90
2023-08-22T00:20:29.222Z,5.70
2023-08-22T00:22:56.150Z,6.10
2023-08-22T00:25:22.998Z,6.30
2023-08-22T00:27:49.840Z,6.00
2023-08-22T00:30:16.679Z,6.00
2023-08-22T00:32:43.677Z,6.30
2023-08-22T00:35:12.522Z,5.70
2023-08-22T00:37:39.661Z,6.40
2023-08-22T00:40:07.936Z,6.00
2023-08-22T00:42:34.783Z,6.20
2023-08-22T00:45:02.846Z,5.80
2023-08-22T00:47:30.236Z,6.10
2023-08-22T00:49:57.244Z,6.20
2023-08-22T00:52:24.087Z,6.20
2023-08-22T00:54:51.749Z,6.10
2023-08-22T00:57:18.791Z,5.90
2023-08-22T00:59:45.736Z,6.50
2023-08-22T01:02:15.367Z,5.70
2023-08-22T01:04:44.026Z,6.10
2023-08-22T01:07:27.456Z,6.50
2023-08-22T01:10:00.038Z,6.50
2023-08-22T01:12:33.020Z,6.50
2023-08-22T01:15:11.228Z,6.30
2023-08-22T01:17:39.594Z,7.10
2023-08-22T01:20:12.487Z,6.80
2023-08-22T01:22:42.515Z,6.80
2023-08-22T01:27:59.333Z,6.30
2023-08-22T01:30:34.195Z,7.20
2023-08-22T01:33:07.642Z,6.80
2023-08-22T01:35:35.624Z,7.20
2023-08-22T01:38:03.529Z,7.00
2023-08-22T01:40:31.040Z,6.60
2023-08-22T01:43:00.341Z,8.00
2023-08-22T01:45:27.592Z,7.20
2023-08-22T01:47:54.627Z,7.00
2023-08-22T01:50:21.681Z,8.30
2023-08-22T01:52:48.933Z,7.60
2023-08-22T01:55:16.395Z,8.30
2023-08-22T01:57:45.791Z,7.70
2023-08-22T02:00:13.350Z,7.50
2023-08-22T02:02:40.270Z,7.80
2023-08-22T02:05:08.206Z,7.80
2023-08-22T02:07:36.363Z,8.10
2023-08-22T02:10:06.862Z,7.20
2023-08-22T02:12:33.799Z,7.80
2023-08-22T02:15:01.081Z,7.20
2023-08-22T02:17:28.210Z,7.20
2023-08-22T02:19:57.761Z,8.40
2023-08-22T02:22:24.652Z,8.20
2023-08-22T02:24:51.491Z,8.20
2023-08-22T02:27:18.435Z,8.30
2023-08-22T02:29:45.274Z,9.00
2023-08-22T02:32:12.115Z,7.80
2023-08-22T02:34:41.216Z,8.00
2023-08-22T02:37:08.255Z,8.20
2023-08-22T02:39:35.103Z,8.00
2023-08-22T02:42:02.755Z,8.00
2023-08-22T02:44:29.710Z,8.00
2023-08-22T02:46:56.645Z,7.70
2023-08-22T02:49:23.486Z,8.30
2023-08-22T02:51:50.322Z,7.80
2023-08-22T02:54:17.274Z,8.20
2023-08-22T02:56:44.212Z,7.90
2023-08-22T02:59:11.264Z,7.50
2023-08-22T03:01:38.097Z,8.00
2023-08-22T03:04:05.449Z,8.40
2023-08-22T03:06:32.292Z,7.90
2023-08-22T03:09:00.575Z,8.10
2023-08-22T03:11:28.737Z,7.90
2023-08-22T03:13:56.096Z,8.30
2023-08-22T03:16:23.672Z,7.90
2023-08-22T03:18:50.697Z,7.70
2023-08-22T03:21:17.640Z,8.30
2023-08-22T03:23:45.404Z,8.60
2023-08-22T03:26:14.765Z,8.30
2023-08-22T03:28:42.279Z,8.10
2023-08-22T03:31:09.527Z,8.40
2023-08-22T03:33:36.478Z,7.20
2023-08-22T03:38:35.159Z,7.90
2023-08-22T03:41:03.536Z,7.80
2023-08-22T03:43:30.681Z,8.10
2023-08-22T03:45:58.001Z,8.50
2023-08-22T03:48:25.256Z,8.40
2023-08-22T03:50:53.053Z,7.80
2023-08-22T03:53:20.004Z,7.70
2023-08-22T03:55:47.042Z,8.20
2023-08-22T03:58:13.985Z,8.30
2023-08-22T04:00:41.048Z,7.90
2023-08-22T04:03:07.998Z,7.90
2023-08-22T04:05:35.125Z,8.00
2023-08-22T04:08:02.688Z,7.90
2023-08-22T04:10:29.621Z,8.50
2023-08-22T04:12:56.564Z,8.70
2023-08-22T04:15:23.558Z,8.40
2023-08-22T04:17:51.485Z,8.40
2023-08-22T04:20:18.828Z,8.40
2023-08-22T04:22:45.673Z,8.00
2023-08-22T04:25:14.163Z,8.50
2023-08-22T04:27:43.179Z,7.80
2023-08-22T04:30:12.278Z,8.00
2023-08-22T04:32:39.445Z,7.70
2023-08-22T04:35:08.172Z,8.40
2023-08-22T04:37:38.325Z,7.90
2023-08-22T04:40:06.166Z,7.50
2023-08-22T04:42:51.734Z,7.70
2023-08-22T04:45:19.083Z,8.20
2023-08-22T04:47:46.582Z,9.20
2023-08-22T04:50:14.101Z,8.50
2023-08-22T04:52:41.044Z,9.10
2023-08-22T04:55:08.605Z,8.60
2023-08-22T04:57:35.454Z,9.10
2023-08-22T05:00:04.642Z,8.60
2023-08-22T05:02:31.641Z,8.60
2023-08-22T05:04:58.841Z,8.70
2023-08-22T05:07:26.191Z,9.10
2023-08-22T05:09:53.439Z,8.80
2023-08-22T05:12:21.687Z,8.50
2023-08-22T05:14:48.633Z,8.50
2023-08-22T05:17:15.580Z,9.00
2023-08-22T05:19:43.062Z,8.40
2023-08-22T05:22:10.206Z,8.70
2023-08-22T05:24:39.410Z,8.90
2023-08-22T05:27:06.690Z,8.40
2023-08-22T05:29:34.558Z,8.40
2023-08-22T05:32:02.040Z,8.50
2023-08-22T05:34:29.225Z,8.50
2023-08-22T05:36:56.168Z,8.40
2023-08-22T05:39:23.630Z,8.60
2023-08-22T05:41:50.467Z,8.10
2023-08-22T05:44:18.234Z,8.40
2023-08-22T05:46:45.580Z,9.00
2023-08-22T05:49:13.137Z,8.10
2023-08-22T05:51:40.522Z,8.40
2023-08-22T05:54:07.437Z,8.20
2023-08-22T05:56:34.893Z,7.70
2023-08-22T05:59:01.841Z,8.40
2023-08-22T06:01:28.913Z,7.90
2023-08-22T06:03:56.044Z,7.30
2023-08-22T06:06:22.976Z,7.90
2023-08-22T06:08:50.324Z,7.50
2023-08-22T06:11:17.780Z,7.10
2023-08-22T06:13:44.597Z,6.80
2023-08-22T06:16:11.714Z,7.10
2023-08-22T06:18:38.515Z,6.30
2023-08-22T06:21:05.354Z,7.30
2023-08-22T06:23:32.281Z,6.20
2023-08-22T06:25:59.238Z,6.20
2023-08-22T06:28:26.078Z,6.20
2023-08-22T06:30:54.769Z,6.10
2023-08-22T06:33:21.810Z,6.40
2023-08-22T06:35:48.855Z,5.60
2023-08-22T06:38:15.703Z,5.70
2023-08-22T06:40:43.259Z,5.00
2023-08-22T06:43:10.099Z,5.10
2023-08-22T06:45:38.110Z,5.50
2023-08-22T06:48:05.914Z,4.80
2023-08-22T06:50:32.974Z,5.30
2023-08-22T06:53:00.746Z,5.10
2023-08-22T06:55:27.590Z,5.40
2023-08-22T06:57:54.421Z,4.80
2023-08-22T07:00:22.287Z,4.70
2023-08-22T07:02:49.400Z,4.80
2023-08-22T07:05:18.339Z,4.80
2023-08-22T07:07:45.457Z,4.50
2023-08-22T07:10:13.823Z,4.40
2023-08-22T07:15:09.789Z,4.40
2023-08-22T07:17:36.705Z,4.60
2023-08-22T07:20:04.695Z,4.90
2023-08-22T07:22:33.071Z,4.40
2023-08-22T07:25:00.018Z,4.60
2023-08-22T07:27:26.962Z,4.80
2023-08-22T07:29:54.005Z,5.00
2023-08-22T07:32:21.568Z,4.70
2023-08-22T07:34:48.607Z,4.60
2023-08-22T07:37:16.576Z,5.20
2023-08-22T07:39:43.728Z,5.30
2023-08-22T07:42:10.565Z,4.60
2023-08-22T07:44:37.409Z,5.20
2023-08-22T07:47:04.456Z,4.50
2023-08-22T07:49:31.316Z,4.70
2023-08-22T07:51:59.166Z,4.70
2023-08-22T07:54:26.116Z,4.40
2023-08-22T07:57:01.710Z,4.70
2023-08-22T07:59:35.452Z,4.00
2023-08-22T08:02:02.353Z,4.50
2023-08-22T08:04:31.389Z,4.70
2023-08-22T08:06:58.232Z,4.20
2023-08-22T08:09:35.036Z,5.20
2023-08-22T08:12:04.454Z,4.90
2023-08-22T08:14:31.757Z,4.30
2023-08-22T08:16:58.704Z,4.70
2023-08-22T08:19:27.431Z,4.70
2023-08-22T08:21:54.856Z,4.60
2023-08-22T08:24:22.089Z,4.40
2023-08-22T08:26:49.158Z,4.80
2023-08-22T08:29:18.542Z,4.40
2023-08-22T08:31:45.588Z,4.40
2023-08-22T08:34:12.448Z,4.20
2023-08-22T08:36:39.266Z,4.80
2023-08-22T08:39:06.518Z,4.90
2023-08-22T08:41:34.397Z,4.40
2023-08-22T08:44:02.045Z,4.60
2023-08-22T08:46:30.813Z,4.60
2023-08-22T08:48:58.288Z,4.60
2023-08-22T08:51:25.331Z,4.40
2023-08-22T08:53:53.097Z,4.40
2023-08-22T08:56:20.621Z,4.70
2023-08-22T08:58:49.237Z,4.20
2023-08-22T09:01:16.608Z,4.90
2023-08-22T09:03:45.476Z,4.60
2023-08-22T09:06:12.320Z,4.70
2023-08-22T09:08:39.977Z,4.20
2023-08-22T09:11:07.332Z,4.80
2023-08-22T09:13:54.028Z,4.60
2023-08-22T09:16:27.297Z,4.70
2023-08-22T09:19:01.161Z,4.50
2023-08-22T09:21:28.908Z,4.40
2023-08-22T09:24:09.387Z,4.60
2023-08-22T09:26:37.436Z,4.70
2023-08-22T09:29:07.971Z,4.90
2023-08-22T09:31:36.192Z,4.60
2023-08-22T09:34:09.118Z,4.60
2023-08-22T09:36:44.811Z,4.60
2023-08-22T09:39:21.331Z,4.80
2023-08-22T09:41:53.793Z,4.50
2023-08-22T09:44:25.645Z,4.60
2023-08-22T09:46:54.246Z,4.90
2023-08-22T09:49:22.215Z,4.90
2023-08-22T09:51:51.827Z,4.30
2023-08-22T09:54:18.769Z,4.40
2023-08-22T09:56:46.532Z,4.40
2023-08-22T09:59:16.847Z,4.30
2023-08-22T10:01:44.070Z,4.50
2023-08-22T10:04:13.235Z,4.60
2023-08-22T10:09:13.427Z,3.90
2023-08-22T10:11:49.078Z,4.40
2023-08-22T10:14:46.231Z,4.20
2023-08-22T10:17:13.991Z,4.50
2023-08-22T10:19:44.227Z,4.40
2023-08-22T10:22:13.057Z,4.30
2023-08-22T10:24:43.762Z,4.40
2023-08-22T10:27:16.271Z,4.40
2023-08-22T10:29:48.060Z,4.40
2023-08-22T10:32:14.932Z,4.40
2023-08-22T10:34:41.844Z,4.70
2023-08-22T10:37:22.917Z,4.80
2023-08-22T10:39:50.087Z,4.30
2023-08-22T10:42:18.139Z,4.20
2023-08-22T10:44:52.362Z,4.50
2023-08-22T10:47:20.907Z,4.10
2023-08-22T10:50:15.910Z,4.40
2023-08-22T10:52:44.385Z,4.60
2023-08-22T10:55:14.750Z,4.70
2023-08-22T10:57:46.917Z,4.30
2023-08-22T11:00:20.203Z,4.50
2023-08-22T11:02:57.933Z,4.10
2023-08-22T11:05:27.443Z,4.20
2023-08-22T11:07:54.240Z,4.50
2023-08-22T11:10:25.221Z,4.00
2023-08-22T11:12:55.206Z,4.30
2023-08-22T11:15:22.553Z,4.10
2023-08-22T11:17:51.407Z,3.90
2023-08-22T11:20:23.789Z,3.70
2023-08-22T11:22:50.893Z,4.20
2023-08-22T11:25:25.881Z,3.50
2023-08-22T11:27:53.444Z,4.00
2023-08-22T11:30:20.912Z,4.10
2023-08-22T11:32:48.295Z,4.10
2023-08-22T11:35:16.628Z,3.70
2023-08-22T11:37:44.436Z,3.60
2023-08-22T11:40:16.629Z,3.90
2023-08-22T11:42:46.981Z,3.70
2023-08-22T11:45:17.769Z,3.40
2023-08-22T11:47:49.626Z,3.90
2023-08-22T11:50:24.318Z,3.90
2023-08-22T11:53:19.054Z,4.00
2023-08-22T11:55:49.846Z,3.80
2023-08-22T11:58:17.492Z,3.80
2023-08-22T12:00:44.962Z,3.90
2023-08-22T12:03:12.101Z,3.90
2023-08-22T12:05:41.901Z,4.10
2023-08-22T12:08:11.611Z,3.90
2023-08-22T12:10:42.449Z,4.10
2023-08-22T12:13:10.327Z,3.60
2023-08-22T12:15:37.908Z,3.60
2023-08-22T12:18:05.476Z,4.00
2023-08-22T12:20:33.098Z,3.70
2023-08-22T12:23:01.675Z,3.90
2023-08-22T12:25:28.512Z,3.80
2023-08-22T12:27:55.561Z,3.50
2023-08-22T12:30:22.618Z,3.60
2023-08-22T12:32:49.778Z,3.70
2023-08-22T12:35:16.801Z,3.60
2023-08-22T12:37:44.140Z,3.40
2023-08-22T12:40:11.650Z,3.70
2023-08-22T12:42:47.916Z,3.40
2023-08-22T12:45:14.711Z,3.50
2023-08-22T12:47:43.334Z,3.50
2023-08-22T12:50:11.264Z,3.20
2023-08-22T12:52:38.519Z,3.30
2023-08-22T12:55:09.151Z,3.80
2023-08-22T12:57:37.437Z,3.60
2023-08-22T13:00:05.195Z,3.60
2023-08-22T13:02:32.319Z,3.60
2023-08-22T13:04:59.788Z,3.50
2023-08-22T13:07:26.831Z,3.80
2023-08-22T13:09:53.773Z,3.90
2023-08-22T13:12:20.622Z,3.50
2023-08-22T13:14:47.457Z,3.80
2023-08-22T13:17:14.404Z,3.60
2023-08-22T13:19:41.544Z,3.60
2023-08-22T13:22:08.409Z,3.80
2023-08-22T13:24:35.352Z,3.90
2023-08-22T13:27:02.283Z,3.80
2023-08-22T13:29:29.127Z,3.70
2023-08-22T13:31:56.104Z,3.40
2023-08-22T13:34:23.218Z,3.30
2023-08-22T13:36:50.482Z,3.40
2023-08-22T13:39:18.389Z,3.20
2023-08-22T13:41:47.423Z,3.20
2023-08-22T13:44:14.425Z,3.00
2023-08-22T13:46:42.652Z,3.30
2023-08-22T13:49:09.486Z,3.40
2023-08-22T13:51:36.329Z,3.30
2023-08-22T13:54:04.212Z,3.20
2023-08-22T13:56:31.876Z,3.20
2023-08-22T13:58:59.210Z,3.40
2023-08-22T14:01:27.369Z,3.30
2023-08-22T14:03:54.421Z,3.40
2023-08-22T14:06:21.481Z,3.40
2023-08-22T14:08:48.933Z,3.50
2023-08-22T14:11:15.963Z,3.70
2023-08-22T14:13:43.547Z,3.50
2023-08-22T14:16:10.869Z,3.70
2023-08-22T14:18:38.677Z,3.80
2023-08-22T14:21:06.212Z,4.30
2023-08-22T14:23:33.045Z,3.80
2023-08-22T14:25:59.992Z,3.70
2023-08-22T14:28:27.044Z,3.90
2023-08-22T14:31:01.630Z,4.20
2023-08-22T14:33:28.785Z,4.20
2023-08-22T14:35:56.766Z,3.70
2023-08-22T14:38:24.235Z,4.10
2023-08-22T14:40:55.694Z,4.40
2023-08-22T14:43:23.445Z,4.10
2023-08-22T14:45:51.436Z,4.40
2023-08-22T14:48:18.708Z,4.00
2023-08-22T14:50:46.018Z,4.10
2023-08-22T14:53:14.303Z,4.20
2023-08-22T14:55:55.867Z,4.40
2023-08-22T14:58:23.019Z,4.30
2023-08-22T15:00:50.235Z,4.40
2023-08-22T15:03:17.162Z,4.40
2023-08-22T15:05:44.256Z,4.70
2023-08-22T15:08:11.134Z,4.90
2023-08-22T15:10:38.246Z,4.20
2023-08-22T15:13:05.204Z,4.50
2023-08-22T15:15:32.303Z,4.00
2023-08-22T15:18:01.672Z,4.10
2023-08-22T15:20:28.729Z,4.40
2023-08-22T15:22:55.527Z,3.90
2023-08-22T15:25:23.493Z,4.20
2023-08-22T15:27:50.349Z,3.70
2023-08-22T15:30:17.285Z,4.30
2023-08-22T15:32:44.529Z,4.00
2023-08-22T15:35:11.484Z,4.30
2023-08-22T15:37:38.313Z,4.50
2023-08-22T15:40:06.181Z,4.20
2023-08-22T15:42:33.845Z,4.10
2023-08-22T15:45:01.199Z,3.90
2023-08-22T15:47:29.743Z,4.40
2023-08-22T15:49:57.641Z,4.20
2023-08-22T15:52:35.326Z,4.20
2023-08-22T15:55:08.637Z,4.30
2023-08-22T15:57:35.474Z,4.80
2023-08-22T16:00:03.155Z,4.80
2023-08-22T16:02:33.261Z,4.90
2023-08-22T16:05:00.606Z,4.70
2023-08-22T16:07:27.753Z,4.70
2023-08-22T16:09:54.699Z,4.70
2023-08-22T16:12:21.540Z,4.70
2023-08-22T16:14:48.375Z,5.00
2023-08-22T16:17:15.216Z,4.20
2023-08-22T16:19:42.017Z,5.30
2023-08-22T16:22:08.798Z,4.90
2023-08-22T16:24:35.744Z,5.00
2023-08-22T16:27:02.590Z,4.90
2023-08-22T16:29:29.525Z,5.00
2023-08-22T16:31:57.293Z,5.30
2023-08-22T16:34:24.149Z,5.50
2023-08-22T16:36:50.979Z,4.40
2023-08-22T16:39:18.737Z,3.70
2023-08-22T16:41:46.495Z,3.70
2023-08-22T16:44:13.542Z,3.60
2023-08-22T16:46:40.737Z,3.80
2023-08-22T16:49:10.607Z,4.00
2023-08-22T16:51:37.758Z,3.50
2023-08-22T16:54:08.215Z,3.70
2023-08-22T16:56:37.786Z,3.90
2023-08-22T16:59:09.329Z,3.50
2023-08-22T17:01:37.136Z,3.60
2023-08-22T17:04:04.191Z,3.80
2023-08-22T17:06:31.099Z,3.50
2023-08-22T17:08:59.269Z,3.30
2023-08-22T17:11:26.100Z,4.50
2023-08-22T17:13:53.057Z,3.60
2023-08-22T17:16:19.910Z,3.90
2023-08-22T17:18:47.043Z,4.10
2023-08-22T17:21:15.721Z,3.90
2023-08-22T17:23:44.197Z,3.90
2023-08-22T17:26:12.677Z,3.80
2023-08-22T17:28:40.560Z,3.40
2023-08-22T17:31:08.501Z,3.70
2023-08-22T17:33:39.036Z,3.60
2023-08-22T17:36:08.585Z,3.50
2023-08-22T17:38:36.313Z,3.40
2023-08-22T17:41:05.032Z,3.60
2023-08-22T17:43:33.539Z,3.40
2023-08-22T17:46:00.483Z,3.70
2023-08-22T17:48:27.868Z,3.30
2023-08-22T17:50:55.744Z,3.40
2023-08-22T17:53:22.993Z,3.80
2023-08-22T17:55:53.863Z,4.20
2023-08-22T17:58:21.302Z,4.50
2023-08-22T18:00:49.551Z,3.80
2023-08-22T18:03:16.755Z,3.20
2023-08-22T18:05:57.479Z,3.70
2023-08-22T18:08:25.027Z,4.40
2023-08-22T18:10:52.898Z,4.40
2023-08-22T18:13:20.250Z,4.30
2023-08-22T18:18:32.046Z,4.00
2023-08-22T18:21:03.267Z,3.60
2023-08-22T18:23:31.262Z,3.50
2023-08-22T18:26:02.330Z,3.40
2023-08-22T18:28:32.086Z,3.50
2023-08-22T18:31:02.638Z,3.20
2023-08-22T18:33:29.602Z,3.20
2023-08-22T18:35:56.549Z,2.90
2023-08-22T18:38:23.904Z,2.90
2023-08-22T18:40:54.218Z,3.50
2023-08-22T18:43:21.777Z,3.80
2023-08-22T18:45:49.167Z,3.50
2023-08-22T18:48:16.531Z,3.50
2023-08-22T18:50:43.521Z,3.80
2023-08-22T18:53:10.566Z,4.20
2023-08-22T18:55:37.508Z,3.80
2023-08-22T18:58:04.468Z,4.00
2023-08-22T19:00:31.444Z,4.20
2023-08-22T19:02:58.674Z,3.50
2023-08-22T19:05:25.910Z,3.70
2023-08-22T19:07:53.010Z,3.70
2023-08-22T19:10:20.248Z,3.60
2023-08-22T19:12:47.116Z,3.30
2023-08-22T19:15:13.981Z,4.60
2023-08-22T19:17:40.850Z,6.00
2023-08-22T19:20:08.578Z,5.60
2023-08-22T19:22:35.552Z,4.40
2023-08-22T19:25:02.780Z,4.60
2023-08-22T19:27:29.648Z,4.20
2023-08-22T19:29:56.564Z,3.40
2023-08-22T19:32:36.697Z,3.80
2023-08-22T19:35:10.721Z,4.10
2023-08-22T19:37:37.568Z,2.80
2023-08-22T19:40:05.028Z,2.50
2023-08-22T19:42:31.958Z,2.90
2023-08-22T19:45:02.006Z,3.00
2023-08-22T19:47:29.256Z,2.50
2023-08-22T19:49:56.378Z,3.00
2023-08-22T19:52:25.484Z,2.40
2023-08-22T19:54:52.514Z,3.00
2023-08-22T19:57:19.465Z,2.90
2023-08-22T19:59:46.404Z,2.80
2023-08-22T20:02:13.473Z,3.00
2023-08-22T20:04:40.902Z,2.80
2023-08-22T20:07:07.947Z,2.90
2023-08-22T20:09:36.040Z,2.80
2023-08-22T20:12:03.474Z,2.90
2023-08-22T20:14:31.341Z,2.40
2023-08-22T20:16:58.740Z,2.70
2023-08-22T20:19:25.638Z,2.80
2023-08-22T20:21:52.588Z,2.40
2023-08-22T20:24:19.536Z,2.60
2023-08-22T20:26:46.673Z,2.90
2023-08-22T20:29:13.613Z,2.30
2023-08-22T20:31:40.600Z,2.80
2023-08-22T20:34:07.607Z,2.80
2023-08-22T20:36:34.450Z,2.40
2023-08-22T20:39:04.464Z,2.70
2023-08-22T20:41:32.525Z,2.90
2023-08-22T20:43:59.797Z,2.50
2023-08-22T20:46:27.150Z,2.50
2023-08-22T20:48:54.240Z,2.70
2023-08-22T20:51:21.126Z,2.50
2023-08-22T20:53:47.972Z,2.70
2023-08-22T20:56:14.809Z,2.70
2023-08-22T20:58:41.657Z,2.40
2023-08-22T21:01:08.539Z,2.50
2023-08-22T21:03:35.716Z,2.50
2023-08-22T21:06:02.890Z,2.60
2023-08-22T21:08:29.736Z,2.80
2023-08-22T21:10:56.777Z,2.80
2023-08-22T21:13:23.624Z,2.70
2023-08-22T21:15:50.590Z,2.60
2023-08-22T21:18:17.620Z,3.00
2023-08-22T21:20:44.449Z,2.50
2023-08-22T21:23:11.290Z,2.90
2023-08-22T21:25:38.559Z,3.20
2023-08-22T21:28:05.609Z,2.80
2023-08-22T21:30:32.540Z,3.00
2023-08-22T21:32:59.471Z,2.70
2023-08-22T21:35:26.517Z,2.80
2023-08-22T21:37:53.368Z,3.10
2023-08-22T21:40:20.311Z,3.30
2023-08-22T21:42:47.348Z,2.80
2023-08-22T21:45:14.808Z,3.00
2023-08-22T21:47:42.601Z,3.40
2023-08-22T21:50:10.334Z,3.20
2023-08-22T21:52:38.115Z,3.40
2023-08-22T21:55:06.094Z,3.30
2023-08-22T21:57:33.416Z,3.20
2023-08-22T22:00:00.458Z,3.20
2023-08-22T22:02:27.713Z,3.30
2023-08-22T22:04:54.967Z,3.20
2023-08-22T22:07:22.022Z,3.40
2023-08-22T22:09:49.237Z,3.30
2023-08-22T22:12:16.219Z,3.80
2023-08-22T22:14:43.163Z,3.20
2023-08-22T22:17:09.990Z,3.50
2023-08-22T22:19:36.844Z,3.00
2023-08-22T22:22:03.880Z,3.80
2023-08-22T22:24:31.844Z,3.60
2023-08-22T22:26:58.687Z,3.20
2023-08-22T22:29:25.543Z,3.40
2023-08-22T22:31:52.380Z,3.60
2023-08-22T22:34:20.579Z,3.90
2023-08-22T22:36:48.817Z,3.10
2023-08-22T22:39:15.658Z,3.30
2023-08-22T22:41:42.497Z,3.70
2023-08-22T22:44:09.546Z,3.90
2023-08-22T22:46:36.433Z,3.20
2023-08-22T22:49:03.545Z,3.20
2023-08-22T22:51:30.377Z,3.20
2023-08-22T22:53:57.321Z,3.60
2023-08-22T22:56:24.174Z,3.30
2023-08-22T22:58:51.110Z,2.80
2023-08-22T23:01:17.962Z,3.00
2023-08-22T23:03:44.860Z,2.90
2023-08-22T23:06:11.945Z,3.10
2023-08-22T23:08:38.789Z,3.40
2023-08-22T23:11:07.217Z,2.90
2023-08-22T23:13:42.697Z,3.50
2023-08-22T23:16:09.606Z,2.90
2023-08-22T23:18:36.587Z,2.70
2023-08-22T23:21:03.529Z,3.30
2023-08-22T23:23:30.372Z,3.50
2023-08-22T23:26:00.080Z,3.00
2023-08-22T23:28:26.926Z,3.40
2023-08-22T23:30:53.803Z,3.40
2023-08-22T23:33:20.643Z,2.60
2023-08-22T23:35:47.444Z,3.50
2023-08-22T23:38:14.488Z,3.00
2023-08-22T23:40:41.435Z,3.30
2023-08-22T23:43:08.684Z,2.80
2023-08-22T23:45:35.539Z,3.10
2023-08-22T23:48:02.477Z,2.80
2023-08-22T23:50:30.672Z,2.80
2023-08-22T23:55:26.164Z,2.90
2023-08-22T23:57:57.717Z,3.10
